Time;durP1;ratioP1;P1;durP2;ratioP2;P2;SDS_P1;SDS_P2;PMS_P1;PMS_P2;Temp;Humidity;BMP_temperature;BMP_pressure;BME280_temperature;BME280_humidity;BME280_pressure;Samples;Min_cycle;Max_cycle;Signal;HPM_P1;HPM_P2
2022/08/14 00:01:16;;;;;;;2.65;2.55;;;;;;;;;;5040897;28;20206;-70
2022/08/14 00:03:42;;;;;;;3.00;2.80;;;;;;;;;;5040576;28;20197;-70
2022/08/14 00:06:08;;;;;;;2.90;2.75;;;;;;;;;;5040415;28;20259;-70
2022/08/14 00:08:35;;;;;;;3.13;2.65;;;;;;;;;;5040507;28;20198;-70
2022/08/14 00:11:01;;;;;;;3.38;2.60;;;;;;;;;;5040607;28;20251;-70
2022/08/14 00:13:28;;;;;;;5.43;3.58;;;;;;;;;;5040559;28;20202;-70
2022/08/14 00:15:56;;;;;;;3.80;3.50;;;;;;;;;;5040491;28;20198;-70
2022/08/14 00:18:24;;;;;;;4.22;3.35;;;;;;;;;;5040600;28;20227;-70
2022/08/14 00:20:51;;;;;;;3.90;3.33;;;;;;;;;;5040649;28;20501;-70
2022/08/14 00:23:18;;;;;;;3.75;3.00;;;;;;;;;;5040310;28;20198;-70
2022/08/14 00:25:45;;;;;;;2.83;2.65;;;;;;;;;;5040571;28;20201;-70
2022/08/14 00:28:12;;;;;;;2.97;2.63;;;;;;;;;;5040346;28;20551;-70
2022/08/14 00:30:38;;;;;;;4.47;3.00;;;;;;;;;;5040350;28;20408;-70
2022/08/14 00:33:05;;;;;;;2.60;2.50;;;;;;;;;;5040104;28;20233;-70
2022/08/14 00:35:33;;;;;;;3.22;3.03;;;;;;;;;;5040534;28;20202;-70
2022/08/14 00:38:00;;;;;;;3.17;2.80;;;;;;;;;;5039995;28;20427;-70
2022/08/14 00:40:26;;;;;;;3.08;2.83;;;;;;;;;;5040246;28;20201;-70
2022/08/14 00:42:52;;;;;;;2.78;2.67;;;;;;;;;;5040421;28;20246;-70
2022/08/14 00:45:19;;;;;;;3.97;2.58;;;;;;;;;;5040169;28;20196;-70
2022/08/14 00:47:46;;;;;;;3.47;2.80;;;;;;;;;;5039835;28;20205;-70
2022/08/14 00:50:14;;;;;;;3.28;2.97;;;;;;;;;;5040124;28;20198;-70
2022/08/14 00:52:42;;;;;;;2.65;2.53;;;;;;;;;;5039825;28;20236;-70
2022/08/14 00:55:09;;;;;;;2.83;2.60;;;;;;;;;;5039917;28;20212;-70
2022/08/14 00:57:36;;;;;;;2.53;2.42;;;;;;;;;;5039775;28;20198;-70
2022/08/14 01:00:04;;;;;;;3.50;2.03;;;;;;;;;;5039685;28;20377;-70
2022/08/14 01:02:31;;;;;;;2.50;2.40;;;;;;;;;;5039922;28;20379;-70
2022/08/14 01:04:58;;;;;;;2.95;2.75;;;;;;;;;;5039669;28;20222;-70
2022/08/14 01:07:25;;;;;;;3.00;2.70;;;;;;;;;;5039827;28;20501;-70
2022/08/14 01:09:53;;;;;;;2.90;2.65;;;;;;;;;;5039696;28;20203;-70
2022/08/14 01:12:20;;;;;;;2.65;2.53;;;;;;;;;;5039481;28;20222;-70
2022/08/14 01:14:54;;;;;;;2.78;2.67;;;;;;;;;;5039861;28;20380;-70
2022/08/14 01:17:20;;;;;;;2.65;2.55;;;;;;;;;;5039369;28;20235;-70
2022/08/14 01:22:32;;;;;;;3.10;2.92;;;;;;;;;;5039590;28;20204;-70
2022/08/14 01:24:58;;;;;;;4.57;3.10;;;;;;;;;;5039769;28;20445;-70
2022/08/14 01:27:27;;;;;;;2.88;2.72;;;;;;;;;;5039330;28;20197;-70
2022/08/14 01:29:55;;;;;;;3.20;3.00;;;;;;;;;;5039372;28;20236;-70
2022/08/14 01:32:21;;;;;;;3.65;3.35;;;;;;;;;;5039146;28;20221;-70
2022/08/14 01:34:48;;;;;;;2.75;2.63;;;;;;;;;;5039570;28;20235;-70
2022/08/14 01:37:14;;;;;;;2.35;2.25;;;;;;;;;;5039274;28;20457;-70
2022/08/14 01:39:43;;;;;;;2.40;2.30;;;;;;;;;;5039746;28;20506;-70
2022/08/14 01:42:10;;;;;;;2.40;2.30;;;;;;;;;;5039240;28;20200;-70
2022/08/14 01:44:37;;;;;;;2.80;2.58;;;;;;;;;;5039139;28;20229;-70
2022/08/14 01:47:11;;;;;;;2.80;2.70;;;;;;;;;;5039107;28;20329;-70
2022/08/14 01:49:37;;;;;;;2.22;2.13;;;;;;;;;;5039173;28;20219;-70
2022/08/14 01:52:03;;;;;;;2.70;2.50;;;;;;;;;;5038551;28;20443;-70
2022/08/14 01:54:30;;;;;;;2.22;2.08;;;;;;;;;;5039107;28;20213;-70
2022/08/14 01:56:58;;;;;;;3.05;2.70;;;;;;;;;;5039149;28;20220;-70
2022/08/14 01:59:31;;;;;;;3.20;2.53;;;;;;;;;;5039274;28;20411;-70
2022/08/14 02:01:59;;;;;;;2.30;2.20;;;;;;;;;;5039055;28;20200;-70
2022/08/14 02:04:28;;;;;;;3.05;2.80;;;;;;;;;;5038832;28;20501;-70
2022/08/14 02:06:54;;;;;;;2.75;2.65;;;;;;;;;;5038792;28;20269;-70
2022/08/14 02:09:21;;;;;;;2.85;2.67;;;;;;;;;;5039113;28;20498;-70
2022/08/14 02:11:49;;;;;;;2.65;2.45;;;;;;;;;;5039168;28;20286;-70
2022/08/14 02:14:17;;;;;;;4.55;3.00;;;;;;;;;;5042454;28;20422;-70
2022/08/14 02:16:46;;;;;;;2.88;2.78;;;;;;;;;;5042179;28;20198;-70
2022/08/14 02:19:14;;;;;;;3.05;2.88;;;;;;;;;;5042488;28;20190;-70
2022/08/14 02:21:40;;;;;;;2.80;2.70;;;;;;;;;;5042629;28;20198;-70
2022/08/14 02:24:07;;;;;;;2.67;2.58;;;;;;;;;;5042351;28;20383;-70
2022/08/14 02:26:35;;;;;;;2.90;2.30;;;;;;;;;;5042081;28;20205;-70
2022/08/14 02:29:03;;;;;;;4.63;2.80;;;;;;;;;;5042282;28;20198;-70
2022/08/14 02:31:32;;;;;;;2.85;2.65;;;;;;;;;;5042032;28;20554;-70
2022/08/14 02:33:58;;;;;;;3.35;3.15;;;;;;;;;;5042014;28;20198;-70
2022/08/14 02:36:25;;;;;;;3.13;2.97;;;;;;;;;;5042097;28;20198;-70
2022/08/14 02:38:52;;;;;;;2.80;2.70;;;;;;;;;;5042065;28;20194;-70
2022/08/14 02:41:18;;;;;;;3.58;3.15;;;;;;;;;;5041939;28;20550;-70
2022/08/14 02:43:45;;;;;;;3.30;3.10;;;;;;;;;;5042081;28;20216;-70
2022/08/14 02:46:11;;;;;;;2.67;2.58;;;;;;;;;;5041644;28;20396;-70
2022/08/14 02:48:40;;;;;;;2.97;2.80;;;;;;;;;;5041978;28;20205;-70
2022/08/14 02:51:08;;;;;;;2.90;2.70;;;;;;;;;;5042005;28;20442;-70
2022/08/14 02:53:34;;;;;;;3.85;2.40;;;;;;;;;;5041478;28;20249;-70
2022/08/14 02:56:01;;;;;;;3.38;2.80;;;;;;;;;;5041684;28;20201;-70
2022/08/14 02:58:27;;;;;;;5.55;2.13;;;;;;;;;;5041544;28;20424;-70
2022/08/14 03:00:54;;;;;;;2.65;2.50;;;;;;;;;;5042057;28;20201;-70
2022/08/14 03:03:22;;;;;;;3.03;2.58;;;;;;;;;;5041757;28;20187;-70
2022/08/14 03:05:50;;;;;;;3.10;2.55;;;;;;;;;;5041516;28;20218;-70
2022/08/14 03:08:17;;;;;;;2.78;2.67;;;;;;;;;;5041523;28;20398;-70
2022/08/14 03:10:44;;;;;;;3.05;2.92;;;;;;;;;;5041614;28;20197;-70
2022/08/14 03:13:10;;;;;;;4.15;2.80;;;;;;;;;;5041355;28;20218;-70
2022/08/14 03:15:38;;;;;;;3.38;3.17;;;;;;;;;;5041806;28;20235;-70
2022/08/14 03:18:04;;;;;;;3.67;3.47;;;;;;;;;;5041340;28;20205;-70
2022/08/14 03:20:31;;;;;;;3.50;3.30;;;;;;;;;;5041782;28;20202;-70
2022/08/14 03:23:00;;;;;;;4.32;3.17;;;;;;;;;;5041054;28;20197;-70
2022/08/14 03:25:32;;;;;;;3.42;3.20;;;;;;;;;;5040488;28;20198;-70
2022/08/14 03:27:59;;;;;;;5.03;3.22;;;;;;;;;;5041339;28;20292;-70
2022/08/14 03:30:25;;;;;;;3.70;2.90;;;;;;;;;;5041216;28;20212;-70
2022/08/14 03:32:52;;;;;;;4.28;3.25;;;;;;;;;;5041322;28;20496;-70
2022/08/14 03:35:18;;;;;;;3.25;2.90;;;;;;;;;;5041195;28;20198;-70
2022/08/14 03:37:44;;;;;;;2.95;2.78;;;;;;;;;;5040928;28;20226;-70
2022/08/14 03:40:12;;;;;;;3.40;3.15;;;;;;;;;;5041040;28;20235;-70
2022/08/14 03:42:39;;;;;;;2.65;2.55;;;;;;;;;;5041144;28;20200;-70
2022/08/14 03:45:05;;;;;;;3.20;3.00;;;;;;;;;;5041186;28;20198;-70
2022/08/14 03:47:39;;;;;;;3.03;2.40;;;;;;;;;;5040876;28;20202;-70
2022/08/14 03:50:06;;;;;;;2.65;2.55;;;;;;;;;;5040921;28;20497;-70
2022/08/14 03:52:32;;;;;;;2.85;2.75;;;;;;;;;;5040772;28;20214;-70
2022/08/14 03:54:59;;;;;;;3.17;2.95;;;;;;;;;;5040657;28;20240;-70
2022/08/14 03:57:31;;;;;;;2.90;2.80;;;;;;;;;;5040784;28;20408;-70
2022/08/14 03:59:57;;;;;;;2.70;2.60;;;;;;;;;;5040920;28;20205;-70
2022/08/14 04:02:23;;;;;;;3.15;2.97;;;;;;;;;;5040732;28;20198;-70
2022/08/14 04:04:52;;;;;;;3.00;2.90;;;;;;;;;;5040739;28;20270;-70
2022/08/14 04:07:18;;;;;;;2.75;2.55;;;;;;;;;;5040898;28;20221;-70
2022/08/14 04:09:44;;;;;;;3.40;3.10;;;;;;;;;;5040836;28;20201;-70
2022/08/14 04:12:11;;;;;;;3.40;3.20;;;;;;;;;;5040768;28;20222;-70
2022/08/14 04:14:38;;;;;;;6.28;3.00;;;;;;;;;;5040474;28;20229;-70
2022/08/14 04:17:05;;;;;;;3.30;3.10;;;;;;;;;;5040309;28;20255;-70
2022/08/14 04:19:31;;;;;;;3.20;3.05;;;;;;;;;;5040512;28;20201;-70
2022/08/14 04:21:58;;;;;;;3.17;2.97;;;;;;;;;;5040342;28;20209;-70
2022/08/14 04:24:24;;;;;;;3.50;3.00;;;;;;;;;;5040684;28;20201;-70
2022/08/14 04:26:50;;;;;;;3.08;2.88;;;;;;;;;;5040263;28;20202;-70
2022/08/14 04:29:17;;;;;;;2.95;2.85;;;;;;;;;;5040339;28;20205;-70
2022/08/14 04:31:45;;;;;;;8.02;2.92;;;;;;;;;;5040517;28;20209;-70
2022/08/14 04:34:12;;;;;;;2.97;2.75;;;;;;;;;;5040268;28;20232;-70
2022/08/14 04:43:34;;;;;;;3.50;3.13;;;;;;;;;;5039522;28;20239;-70
2022/08/14 04:44:49;;;;;;;3.38;3.17;;;;;;;;;;5062096;28;20221;-70
2022/08/14 04:50:02;;;;;;;3.15;2.88;;;;;;;;;;5040002;28;20209;-70
2022/08/14 04:52:29;;;;;;;3.45;3.15;;;;;;;;;;5039913;28;20505;-70
2022/08/14 04:54:56;;;;;;;5.05;3.13;;;;;;;;;;5040327;28;20225;-70
2022/08/14 04:57:23;;;;;;;3.33;3.08;;;;;;;;;;5039734;28;20400;-70
2022/08/14 04:59:51;;;;;;;7.05;3.30;;;;;;;;;;5040085;28;20269;-70
2022/08/14 05:02:22;;;;;;;3.70;3.50;;;;;;;;;;5039912;28;20202;-70
2022/08/14 05:04:49;;;;;;;4.00;3.67;;;;;;;;;;5039911;28;20225;-70
2022/08/14 05:07:15;;;;;;;3.75;3.55;;;;;;;;;;5039724;28;20225;-70
2022/08/14 05:09:41;;;;;;;4.25;4.05;;;;;;;;;;5039780;28;20497;-70
2022/08/14 05:12:08;;;;;;;3.92;3.72;;;;;;;;;;5040098;28;20539;-70
2022/08/14 05:14:35;;;;;;;4.35;3.33;;;;;;;;;;5039815;28;20341;-70
2022/08/14 05:17:01;;;;;;;4.50;4.20;;;;;;;;;;5039578;28;20235;-70
2022/08/14 05:19:28;;;;;;;3.80;3.60;;;;;;;;;;5039861;28;20264;-70
2022/08/14 05:21:58;;;;;;;7.00;3.60;;;;;;;;;;5039597;28;20243;-70
2022/08/14 05:24:24;;;;;;;4.40;3.70;;;;;;;;;;5039542;28;20225;-70
2022/08/14 05:26:50;;;;;;;3.95;3.75;;;;;;;;;;5040668;28;20198;-70
2022/08/14 05:29:17;;;;;;;3.42;3.22;;;;;;;;;;5042597;28;20194;-70
2022/08/14 05:31:43;;;;;;;3.50;3.25;;;;;;;;;;5039721;28;20197;-70
2022/08/14 05:34:10;;;;;;;3.88;3.67;;;;;;;;;;5039429;28;20217;-70
2022/08/14 05:36:38;;;;;;;4.50;4.07;;;;;;;;;;5039238;28;20205;-70
2022/08/14 05:39:04;;;;;;;3.88;3.58;;;;;;;;;;5039464;28;20511;-70
2022/08/14 05:41:31;;;;;;;6.40;4.00;;;;;;;;;;5039540;28;20389;-70
2022/08/14 05:43:58;;;;;;;4.38;3.97;;;;;;;;;;5039528;28;20202;-70
2022/08/14 05:46:24;;;;;;;4.30;4.00;;;;;;;;;;5039128;28;20400;-70
2022/08/14 05:48:52;;;;;;;8.00;5.57;;;;;;;;;;5042449;28;20201;-70
2022/08/14 05:51:18;;;;;;;4.50;3.92;;;;;;;;;;5042777;28;20228;-70
2022/08/14 05:53:46;;;;;;;4.05;3.75;;;;;;;;;;5042796;28;20602;-70
2022/08/14 05:56:12;;;;;;;4.72;4.00;;;;;;;;;;5042406;28;20520;-70
2022/08/14 05:58:39;;;;;;;4.00;3.70;;;;;;;;;;5042915;28;20258;-70
2022/08/14 06:01:06;;;;;;;4.28;3.97;;;;;;;;;;5042731;28;20197;-70
2022/08/14 06:03:32;;;;;;;4.28;3.97;;;;;;;;;;5042781;28;20194;-70
2022/08/14 06:05:58;;;;;;;4.03;3.65;;;;;;;;;;5042004;28;20255;-70
2022/08/14 06:08:25;;;;;;;3.72;3.42;;;;;;;;;;5042432;28;20205;-70
2022/08/14 06:10:54;;;;;;;4.88;3.90;;;;;;;;;;5042642;28;20221;-70
2022/08/14 06:13:20;;;;;;;3.72;3.55;;;;;;;;;;5042508;28;20386;-70
2022/08/14 06:15:47;;;;;;;5.65;3.80;;;;;;;;;;5042350;28;20197;-70
2022/08/14 06:18:14;;;;;;;4.10;3.85;;;;;;;;;;5042231;28;20412;-70
2022/08/14 06:20:41;;;;;;;4.40;4.20;;;;;;;;;;5042773;28;20243;-70
2022/08/14 06:23:07;;;;;;;4.30;3.80;;;;;;;;;;5042688;28;20200;-70
2022/08/14 06:25:33;;;;;;;3.75;3.42;;;;;;;;;;5042574;28;20198;-70
2022/08/14 06:28:01;;;;;;;3.70;3.40;;;;;;;;;;5042316;28;20391;-70
2022/08/14 06:30:28;;;;;;;3.58;3.45;;;;;;;;;;5042337;28;20210;-70
2022/08/14 06:32:54;;;;;;;4.10;3.78;;;;;;;;;;5041936;28;20204;-70
2022/08/14 06:35:21;;;;;;;4.35;4.05;;;;;;;;;;5042176;28;20202;-70
2022/08/14 06:37:49;;;;;;;3.25;3.15;;;;;;;;;;5042540;28;20205;-70
2022/08/14 06:40:17;;;;;;;4.07;3.88;;;;;;;;;;5042235;28;20198;-70
2022/08/14 06:42:43;;;;;;;3.53;3.42;;;;;;;;;;5042069;28;20202;-70
2022/08/14 06:45:11;;;;;;;4.30;3.78;;;;;;;;;;5042156;28;20501;-70
2022/08/14 06:47:39;;;;;;;4.55;4.25;;;;;;;;;;5041782;28;20243;-70
2022/08/14 06:50:06;;;;;;;4.45;3.08;;;;;;;;;;5042062;28;20517;-70
2022/08/14 06:52:32;;;;;;;4.13;3.75;;;;;;;;;;5042016;28;20209;-70
2022/08/14 06:54:59;;;;;;;5.30;4.85;;;;;;;;;;5041639;28;20267;-70
2022/08/14 06:57:25;;;;;;;4.03;3.70;;;;;;;;;;5041739;28;20235;-70
2022/08/14 06:59:51;;;;;;;5.88;3.80;;;;;;;;;;5041565;28;20206;-70
2022/08/14 07:07:47;;;;;;;3.95;3.38;;;;;;;;;;5041466;28;20509;-70
2022/08/14 07:10:13;;;;;;;4.10;3.38;;;;;;;;;;5041618;28;20198;-70
2022/08/14 07:12:39;;;;;;;3.85;3.53;;;;;;;;;;5041480;28;20219;-71
2022/08/14 07:15:06;;;;;;;3.60;3.38;;;;;;;;;;5041351;28;20229;-70
2022/08/14 07:17:34;;;;;;;3.75;3.55;;;;;;;;;;5041246;28;20201;-70
2022/08/14 07:20:00;;;;;;;3.40;3.20;;;;;;;;;;5041477;28;20198;-70
2022/08/14 07:22:26;;;;;;;3.45;3.25;;;;;;;;;;5041848;28;20202;-70
2022/08/14 07:24:52;;;;;;;3.40;3.30;;;;;;;;;;5041531;28;20198;-70
2022/08/14 07:27:19;;;;;;;3.88;2.92;;;;;;;;;;5040951;28;20247;-70
2022/08/14 07:29:45;;;;;;;3.83;3.22;;;;;;;;;;5041859;28;20259;-70
2022/08/14 07:32:11;;;;;;;3.28;3.08;;;;;;;;;;5041488;28;20226;-70
2022/08/14 07:34:39;;;;;;;3.35;3.15;;;;;;;;;;5041267;28;20225;-70
2022/08/14 07:37:05;;;;;;;3.30;2.95;;;;;;;;;;5041178;28;20206;-70
2022/08/14 07:39:31;;;;;;;3.72;3.08;;;;;;;;;;5041211;28;20243;-70
2022/08/14 07:41:58;;;;;;;3.08;2.60;;;;;;;;;;5041243;28;20206;-70
2022/08/14 07:44:24;;;;;;;2.75;2.65;;;;;;;;;;5041354;28;20201;-70
2022/08/14 07:46:50;;;;;;;3.58;2.63;;;;;;;;;;5040976;28;20205;-70
2022/08/14 07:49:17;;;;;;;3.00;2.70;;;;;;;;;;5041115;28;20198;-70
2022/08/14 07:51:45;;;;;;;3.42;3.03;;;;;;;;;;5040989;28;20205;-68
2022/08/14 07:54:11;;;;;;;2.58;2.47;;;;;;;;;;5040802;28;20453;-68
2022/08/14 07:56:38;;;;;;;2.60;2.47;;;;;;;;;;5040556;28;20198;-70
2022/08/14 07:59:04;;;;;;;3.65;2.80;;;;;;;;;;5041101;28;20243;-68
2022/08/14 08:01:32;;;;;;;3.03;2.70;;;;;;;;;;5040773;28;20201;-68
2022/08/14 08:03:58;;;;;;;2.70;2.60;;;;;;;;;;5040812;28;20238;-68
2022/08/14 08:06:25;;;;;;;3.20;3.08;;;;;;;;;;5040420;28;20224;-68
2022/08/14 08:08:55;;;;;;;3.03;2.88;;;;;;;;;;5040612;28;20204;-69
2022/08/14 08:11:21;;;;;;;4.70;3.08;;;;;;;;;;5040058;28;20198;-69
2022/08/14 08:13:48;;;;;;;2.75;2.55;;;;;;;;;;5040752;28;20386;-69
2022/08/14 08:16:15;;;;;;;2.60;2.40;;;;;;;;;;5040224;28;20532;-60
2022/08/14 08:18:41;;;;;;;3.28;2.28;;;;;;;;;;5040637;28;20407;-60
2022/08/14 08:21:08;;;;;;;2.10;2.00;;;;;;;;;;5040584;28;20198;-61
2022/08/14 08:23:34;;;;;;;2.95;2.85;;;;;;;;;;5040342;28;20197;-61
2022/08/14 08:26:01;;;;;;;2.80;2.60;;;;;;;;;;5040606;28;20244;-61
2022/08/14 08:28:29;;;;;;;2.80;2.60;;;;;;;;;;5040481;28;20204;-62
2022/08/14 08:30:56;;;;;;;2.70;2.50;;;;;;;;;;5040419;28;20223;-62
2022/08/14 08:33:25;;;;;;;5.60;2.47;;;;;;;;;;5040179;28;20262;-61
2022/08/14 08:35:51;;;;;;;5.47;2.42;;;;;;;;;;5040214;28;20450;-61
2022/08/14 08:38:18;;;;;;;6.78;2.20;;;;;;;;;;5039803;28;20367;-61
2022/08/14 08:40:45;;;;;;;4.18;2.00;;;;;;;;;;5040371;28;20427;-60
2022/08/14 08:43:21;;;;;;;2.42;2.10;;;;;;;;;;5040435;28;20419;-61
2022/08/14 08:45:53;;;;;;;5.35;4.85;;;;;;;;;;5040156;28;20200;-61
2022/08/14 08:48:19;;;;;;;3.50;2.55;;;;;;;;;;5039826;28;20213;-61
2022/08/14 08:50:45;;;;;;;2.47;2.38;;;;;;;;;;5040455;28;20201;-61
2022/08/14 08:53:11;;;;;;;2.50;2.40;;;;;;;;;;5040055;28;20205;-61
2022/08/14 08:55:39;;;;;;;2.22;2.10;;;;;;;;;;5033728;28;20229;-61
2022/08/14 08:58:06;;;;;;;2.20;2.10;;;;;;;;;;5028125;28;20202;-61
2022/08/14 09:00:35;;;;;;;2.35;2.20;;;;;;;;;;5030612;28;20212;-61
2022/08/14 09:03:04;;;;;;;2.08;1.95;;;;;;;;;;5030190;28;20208;-61
2022/08/14 09:05:31;;;;;;;3.25;2.92;;;;;;;;;;5030046;28;20254;-61
2022/08/14 09:08:15;;;;;;;2.95;2.58;;;;;;;;;;5020198;28;20408;-61
2022/08/14 09:10:41;;;;;;;3.78;3.58;;;;;;;;;;5020209;28;20440;-61
2022/08/14 09:13:09;;;;;;;1.90;1.80;;;;;;;;;;5019930;28;20204;-61
2022/08/14 09:15:37;;;;;;;2.63;2.47;;;;;;;;;;5019626;28;20218;-61
2022/08/14 09:18:03;;;;;;;2.20;2.10;;;;;;;;;;5019756;28;20251;-61
2022/08/14 09:20:30;;;;;;;2.13;2.00;;;;;;;;;;5020017;28;20551;-61
2022/08/14 09:22:58;;;;;;;2.20;2.10;;;;;;;;;;5019801;28;20206;-61
2022/08/14 09:25:24;;;;;;;2.40;1.58;;;;;;;;;;5019811;28;20310;-61
2022/08/14 09:27:50;;;;;;;1.63;1.63;;;;;;;;;;5019583;28;20242;-61
2022/08/14 09:30:16;;;;;;;1.73;1.60;;;;;;;;;;5019579;28;20293;-61
2022/08/14 09:32:52;;;;;;;2.28;1.77;;;;;;;;;;5019879;28;20243;-61
2022/08/14 09:35:23;;;;;;;1.75;1.40;;;;;;;;;;5019640;28;20217;-61
2022/08/14 09:37:55;;;;;;;1.75;1.63;;;;;;;;;;5019572;28;20251;-61
2022/08/14 09:40:27;;;;;;;2.70;1.70;;;;;;;;;;5019573;28;20198;-61
2022/08/14 09:43:00;;;;;;;2.08;1.60;;;;;;;;;;5019395;28;20228;-61
2022/08/14 09:45:31;;;;;;;2.17;1.75;;;;;;;;;;5019665;28;20194;-61
2022/08/14 09:47:59;;;;;;;2.63;1.85;;;;;;;;;;5019313;28;20205;-61
2022/08/14 09:50:28;;;;;;;1.75;1.67;;;;;;;;;;5019248;28;20202;-61
2022/08/14 09:52:56;;;;;;;3.22;1.70;;;;;;;;;;5019391;28;20274;-61
2022/08/14 09:55:24;;;;;;;1.58;1.58;;;;;;;;;;5019264;28;20220;-61
2022/08/14 09:57:50;;;;;;;2.88;1.60;;;;;;;;;;5019176;28;20296;-61
2022/08/14 10:00:18;;;;;;;1.80;1.80;;;;;;;;;;5019484;28;20230;-61
2022/08/14 10:02:56;;;;;;;1.63;1.63;;;;;;;;;;5019235;28;20198;-61
2022/08/14 10:05:32;;;;;;;1.85;1.75;;;;;;;;;;5019057;28;20214;-61
2022/08/14 10:08:00;;;;;;;1.98;1.65;;;;;;;;;;5019406;28;20460;-61
2022/08/14 10:10:28;;;;;;;2.08;2.08;;;;;;;;;;5019545;28;20269;-61
2022/08/14 10:12:54;;;;;;;2.78;1.77;;;;;;;;;;5019181;28;20505;-61
2022/08/14 10:15:23;;;;;;;1.80;1.70;;;;;;;;;;5019164;28;20218;-61
2022/08/14 10:17:50;;;;;;;2.17;2.03;;;;;;;;;;5019182;28;20198;-61
2022/08/14 10:20:21;;;;;;;1.80;1.70;;;;;;;;;;5018974;28;20556;-61
2022/08/14 10:22:49;;;;;;;2.08;1.85;;;;;;;;;;5019319;28;20205;-62
2022/08/14 10:25:16;;;;;;;2.03;1.85;;;;;;;;;;5019599;28;20210;-61
2022/08/14 10:27:45;;;;;;;2.70;1.60;;;;;;;;;;5032119;28;20224;-61
2022/08/14 10:30:15;;;;;;;1.67;1.67;;;;;;;;;;5033008;28;20592;-61
2022/08/14 10:32:45;;;;;;;3.33;1.80;;;;;;;;;;5033024;28;20254;-63
2022/08/14 10:35:12;;;;;;;2.10;2.00;;;;;;;;;;5036236;28;20288;-62
2022/08/14 10:37:39;;;;;;;3.22;2.05;;;;;;;;;;5036185;28;20217;-63
2022/08/14 10:40:07;;;;;;;1.88;1.77;;;;;;;;;;5086778;27;20213;-63
2022/08/14 10:42:37;;;;;;;1.67;1.67;;;;;;;;;;5103933;27;20459;-62
2022/08/14 10:45:04;;;;;;;2.00;2.00;;;;;;;;;;5036081;28;20210;-62
2022/08/14 10:47:34;;;;;;;2.28;2.00;;;;;;;;;;5036033;28;20209;-63
2022/08/14 10:50:01;;;;;;;2.72;2.00;;;;;;;;;;5036319;28;20229;-63
2022/08/14 10:52:28;;;;;;;1.80;1.73;;;;;;;;;;5036306;28;20213;-63
2022/08/14 10:55:07;;;;;;;2.80;2.17;;;;;;;;;;5036050;28;20300;-63
2022/08/14 10:57:35;;;;;;;4.78;2.17;;;;;;;;;;5036832;27;20197;-63
2022/08/14 11:00:11;;;;;;;1.75;1.67;;;;;;;;;;5035947;28;20255;-63
2022/08/14 11:02:38;;;;;;;3.17;2.10;;;;;;;;;;5036366;28;20257;-62
2022/08/14 11:05:07;;;;;;;3.03;1.95;;;;;;;;;;5035175;28;20481;-62
2022/08/14 11:07:34;;;;;;;1.92;1.83;;;;;;;;;;5035767;28;20230;-63
2022/08/14 11:10:01;;;;;;;4.60;2.20;;;;;;;;;;5036410;28;20440;-63
2022/08/14 11:12:38;;;;;;;2.42;2.10;;;;;;;;;;5035452;28;20202;-63
2022/08/14 11:15:07;;;;;;;2.55;2.30;;;;;;;;;;5035049;28;20225;-63
2022/08/14 11:17:34;;;;;;;1.88;1.77;;;;;;;;;;5035350;28;20246;-64
2022/08/14 11:20:07;;;;;;;1.90;1.83;;;;;;;;;;5112598;27;20213;-63
2022/08/14 11:22:34;;;;;;;2.10;2.00;;;;;;;;;;5139810;27;20213;-64
2022/08/14 11:25:02;;;;;;;5.15;2.10;;;;;;;;;;5139450;27;20247;-62
2022/08/14 11:27:30;;;;;;;2.03;1.92;;;;;;;;;;5139409;27;20206;-60
2022/08/14 11:30:00;;;;;;;2.28;2.13;;;;;;;;;;5139865;27;20262;-63
2022/08/14 11:32:28;;;;;;;1.90;1.90;;;;;;;;;;5059151;27;20213;-61
2022/08/14 11:34:54;;;;;;;2.58;1.98;;;;;;;;;;5116895;27;20221;-61
2022/08/14 11:37:21;;;;;;;2.00;1.90;;;;;;;;;;5138638;27;20205;-63
2022/08/14 11:39:48;;;;;;;2.05;1.90;;;;;;;;;;5139182;27;20277;-60
2022/08/14 11:42:19;;;;;;;2.30;2.13;;;;;;;;;;5138855;27;20214;-63
2022/08/14 11:44:46;;;;;;;2.30;2.10;;;;;;;;;;5138095;27;20233;-61
2022/08/14 11:47:17;;;;;;;2.85;1.80;;;;;;;;;;5138855;27;20206;-64
2022/08/14 11:49:46;;;;;;;2.70;2.00;;;;;;;;;;5138731;27;20308;-63
2022/08/14 11:52:12;;;;;;;1.80;1.80;;;;;;;;;;5139171;27;20210;-63
2022/08/14 11:54:39;;;;;;;1.90;1.90;;;;;;;;;;5138807;27;20213;-63
2022/08/14 11:57:05;;;;;;;1.80;1.80;;;;;;;;;;5138495;27;20210;-63
2022/08/14 11:59:32;;;;;;;2.00;1.90;;;;;;;;;;5139130;27;20210;-63
2022/08/14 12:02:07;;;;;;;2.28;1.95;;;;;;;;;;5139289;27;20213;-62
2022/08/14 12:04:34;;;;;;;1.83;1.83;;;;;;;;;;5138654;27;20447;-63
2022/08/14 12:07:06;;;;;;;1.50;1.50;;;;;;;;;;5138543;27;20232;-62
2022/08/14 12:09:33;;;;;;;1.90;1.58;;;;;;;;;;5138845;27;20213;-63
2022/08/14 12:11:59;;;;;;;1.63;1.40;;;;;;;;;;5138929;27;20467;-62
2022/08/14 12:14:26;;;;;;;1.55;1.42;;;;;;;;;;5138925;27;20464;-61
2022/08/14 12:16:59;;;;;;;1.85;1.30;;;;;;;;;;5138119;27;20277;-62
2022/08/14 12:19:26;;;;;;;1.45;1.45;;;;;;;;;;5087153;27;20214;-63
2022/08/14 12:21:53;;;;;;;2.45;1.60;;;;;;;;;;5034476;28;20209;-63
2022/08/14 12:24:27;;;;;;;1.58;1.58;;;;;;;;;;5034448;28;20459;-62
2022/08/14 12:26:54;;;;;;;1.50;1.50;;;;;;;;;;5033944;28;20541;-63
2022/08/14 12:29:20;;;;;;;1.65;1.55;;;;;;;;;;5034439;28;20637;-62
2022/08/14 12:31:56;;;;;;;3.35;1.38;;;;;;;;;;5034851;28;20210;-63
2022/08/14 12:34:23;;;;;;;1.60;1.48;;;;;;;;;;5034189;28;20205;-63
2022/08/14 12:36:50;;;;;;;2.97;1.80;;;;;;;;;;5033854;28;20495;-62
2022/08/14 12:39:18;;;;;;;2.33;1.60;;;;;;;;;;5034315;28;20426;-62
2022/08/14 12:41:51;;;;;;;5.00;2.15;;;;;;;;;;5033991;28;20537;-62
2022/08/14 12:44:20;;;;;;;2.33;1.70;;;;;;;;;;5033296;28;20280;-62
2022/08/14 12:46:47;;;;;;;2.10;1.52;;;;;;;;;;5033305;28;20209;-64
2022/08/14 12:49:15;;;;;;;1.67;1.58;;;;;;;;;;5033548;28;20301;-64
2022/08/14 12:51:42;;;;;;;4.10;1.77;;;;;;;;;;5033590;28;20209;-64
2022/08/14 12:54:14;;;;;;;3.40;1.63;;;;;;;;;;5033371;28;20278;-63
2022/08/14 12:56:41;;;;;;;1.63;1.52;;;;;;;;;;5032632;28;20268;-65
2022/08/14 12:59:08;;;;;;;1.95;1.85;;;;;;;;;;5033406;28;20489;-65
2022/08/14 13:01:35;;;;;;;2.08;1.35;;;;;;;;;;5033619;28;20209;-64
2022/08/14 13:04:04;;;;;;;3.10;1.25;;;;;;;;;;5033440;28;20213;-63
2022/08/14 13:06:30;;;;;;;1.27;1.27;;;;;;;;;;5032771;28;20217;-62
2022/08/14 13:08:57;;;;;;;2.15;1.40;;;;;;;;;;5033675;28;20210;-72
2022/08/14 13:11:24;;;;;;;1.17;1.17;;;;;;;;;;5033463;28;20485;-72
2022/08/14 13:13:53;;;;;;;1.30;1.30;;;;;;;;;;5033349;28;20209;-72
2022/08/14 13:16:21;;;;;;;1.42;1.30;;;;;;;;;;5032390;28;20229;-72
2022/08/14 13:18:49;;;;;;;2.08;1.10;;;;;;;;;;5057556;27;20202;-72
2022/08/14 13:21:16;;;;;;;1.20;1.20;;;;;;;;;;5136900;27;20247;-72
2022/08/14 13:23:43;;;;;;;1.38;1.38;;;;;;;;;;5137053;27;20206;-72
2022/08/14 13:26:10;;;;;;;1.60;1.30;;;;;;;;;;5136334;27;20202;-72
2022/08/14 13:28:38;;;;;;;1.45;1.23;;;;;;;;;;5137220;27;20537;-72
2022/08/14 13:31:06;;;;;;;2.17;1.30;;;;;;;;;;5137666;27;20209;-71
2022/08/14 13:33:35;;;;;;;1.27;1.17;;;;;;;;;;5137182;27;20205;-71
2022/08/14 13:36:02;;;;;;;0.90;0.90;;;;;;;;;;5136315;27;20279;-72
2022/08/14 13:38:30;;;;;;;2.25;1.20;;;;;;;;;;5137248;28;20509;-71
2022/08/14 13:40:56;;;;;;;1.50;1.40;;;;;;;;;;5137174;28;20206;-71
2022/08/14 13:43:24;;;;;;;1.40;1.40;;;;;;;;;;5136783;28;20403;-71
2022/08/14 13:45:50;;;;;;;1.65;1.35;;;;;;;;;;5136388;28;20527;-71
2022/08/14 13:48:17;;;;;;;1.27;1.27;;;;;;;;;;5136616;28;20438;-71
2022/08/14 13:50:47;;;;;;;2.05;1.20;;;;;;;;;;5136937;28;20432;-71
2022/08/14 13:53:14;;;;;;;2.05;1.15;;;;;;;;;;5136853;28;20513;-71
2022/08/14 13:55:41;;;;;;;1.45;1.40;;;;;;;;;;5136971;28;20497;-71
2022/08/14 13:58:09;;;;;;;1.20;1.20;;;;;;;;;;5137011;28;20254;-71
2022/08/14 14:00:37;;;;;;;1.30;1.30;;;;;;;;;;5137576;28;20213;-71
2022/08/14 14:03:04;;;;;;;1.25;1.25;;;;;;;;;;5137765;28;20403;-71
2022/08/14 14:05:30;;;;;;;2.72;1.33;;;;;;;;;;5129530;28;20375;-71
2022/08/14 14:07:59;;;;;;;1.67;1.40;;;;;;;;;;5023340;28;20202;-71
2022/08/14 14:10:26;;;;;;;1.27;1.27;;;;;;;;;;5022478;28;20213;-71
2022/08/14 14:12:53;;;;;;;2.05;1.40;;;;;;;;;;5017166;28;20218;-71
2022/08/14 14:15:20;;;;;;;2.70;1.30;;;;;;;;;;5016513;28;20488;-72
2022/08/14 14:17:47;;;;;;;1.40;1.40;;;;;;;;;;5016867;28;20229;-70
2022/08/14 14:20:15;;;;;;;1.17;1.17;;;;;;;;;;5119331;27;20206;-70
2022/08/14 14:22:42;;;;;;;1.33;1.30;;;;;;;;;;5141209;27;20210;-70
2022/08/14 14:25:13;;;;;;;3.70;1.30;;;;;;;;;;5140740;27;20222;-70
2022/08/14 14:27:40;;;;;;;1.38;1.38;;;;;;;;;;5140888;27;20227;-70
2022/08/14 14:30:07;;;;;;;1.33;1.33;;;;;;;;;;5141119;27;20206;-70
2022/08/14 14:32:37;;;;;;;3.22;1.40;;;;;;;;;;5140761;27;20206;-70
2022/08/14 14:35:04;;;;;;;1.50;1.40;;;;;;;;;;5140617;27;20210;-70
2022/08/14 14:37:31;;;;;;;1.42;1.33;;;;;;;;;;5139466;27;20738;-71
2022/08/14 14:39:58;;;;;;;1.40;1.40;;;;;;;;;;5141196;27;20206;-71
2022/08/14 14:42:26;;;;;;;1.67;1.50;;;;;;;;;;5141269;27;20237;-71
2022/08/14 14:44:56;;;;;;;1.33;1.33;;;;;;;;;;5140934;27;20206;-71
2022/08/14 14:47:23;;;;;;;2.50;1.50;;;;;;;;;;5140519;27;20273;-70
2022/08/14 14:49:49;;;;;;;1.25;1.25;;;;;;;;;;5140834;27;20540;-70
2022/08/14 14:52:16;;;;;;;1.17;1.17;;;;;;;;;;5140562;27;20251;-70
2022/08/14 14:54:45;;;;;;;2.97;1.33;;;;;;;;;;5140579;27;20379;-70
2022/08/14 14:57:12;;;;;;;1.48;1.45;;;;;;;;;;5140086;27;20583;-70
2022/08/14 14:59:40;;;;;;;3.25;1.20;;;;;;;;;;5140542;27;20206;-70
2022/08/14 15:02:07;;;;;;;1.20;1.20;;;;;;;;;;5140586;27;20505;-70